sensor_id;sensor_type;location;lat;lon;timestamp;P1;durP1;ratioP1;P2;durP2;ratioP2
62903;SDS011;49000;50.698;13.322;2022-12-18T00:00:44;26.73;;;10.37;;
62903;SDS011;49000;50.698;13.322;2022-12-18T00:03:12;24.73;;;9.37;;
62903;SDS011;49000;50.698;13.322;2022-12-18T00:05:45;20.13;;;8.70;;
62903;SDS011;49000;50.698;13.322;2022-12-18T00:08:17;22.93;;;9.73;;
62903;SDS011;49000;50.698;13.322;2022-12-18T00:10:43;23.30;;;8.90;;
62903;SDS011;49000;50.698;13.322;2022-12-18T00:13:10;20.70;;;8.60;;
62903;SDS011;49000;50.698;13.322;2022-12-18T00:15:36;23.13;;;8.70;;
62903;SDS011;49000;50.698;13.322;2022-12-18T00:18:03;24.93;;;9.20;;
62903;SDS011;49000;50.698;13.322;2022-12-18T00:20:28;21.93;;;9.30;;
62903;SDS011;49000;50.698;13.322;2022-12-18T00:22:54;20.63;;;8.50;;
62903;SDS011;49000;50.698;13.322;2022-12-18T00:25:20;23.00;;;8.90;;
62903;SDS011;49000;50.698;13.322;2022-12-18T00:27:46;20.27;;;9.60;;
62903;SDS011;49000;50.698;13.322;2022-12-18T00:30:12;22.03;;;8.83;;
62903;SDS011;49000;50.698;13.322;2022-12-18T00:32:38;18.23;;;8.23;;
62903;SDS011;49000;50.698;13.322;2022-12-18T00:35:04;23.87;;;8.30;;
62903;SDS011;49000;50.698;13.322;2022-12-18T00:37:30;16.60;;;6.97;;
62903;SDS011;49000;50.698;13.322;2022-12-18T00:39:56;19.37;;;7.17;;
62903;SDS011;49000;50.698;13.322;2022-12-18T00:42:21;17.13;;;7.80;;
62903;SDS011;49000;50.698;13.322;2022-12-18T00:45:06;17.80;;;7.60;;
62903;SDS011;49000;50.698;13.322;2022-12-18T00:47:32;16.57;;;7.53;;
62903;SDS011;49000;50.698;13.322;2022-12-18T00:49:57;18.40;;;7.10;;
62903;SDS011;49000;50.698;13.322;2022-12-18T00:52:22;18.57;;;7.37;;
62903;SDS011;49000;50.698;13.322;2022-12-18T00:54:48;16.23;;;6.40;;
62903;SDS011;49000;50.698;13.322;2022-12-18T00:57:13;14.23;;;6.97;;
62903;SDS011;49000;50.698;13.322;2022-12-18T00:59:39;14.47;;;6.50;;
62903;SDS011;49000;50.698;13.322;2022-12-18T01:02:04;14.63;;;6.27;;
62903;SDS011;49000;50.698;13.322;2022-12-18T01:04:33;11.33;;;5.57;;
62903;SDS011;49000;50.698;13.322;2022-12-18T01:06:59;12.93;;;5.73;;
62903;SDS011;49000;50.698;13.322;2022-12-18T01:09:25;13.30;;;6.13;;
62903;SDS011;49000;50.698;13.322;2022-12-18T01:11:51;17.13;;;5.97;;
62903;SDS011;49000;50.698;13.322;2022-12-18T01:14:16;16.33;;;6.20;;
62903;SDS011;49000;50.698;13.322;2022-12-18T01:16:42;15.43;;;6.23;;
62903;SDS011;49000;50.698;13.322;2022-12-18T01:19:07;16.70;;;5.93;;
62903;SDS011;49000;50.698;13.322;2022-12-18T01:21:33;15.13;;;5.63;;
62903;SDS011;49000;50.698;13.322;2022-12-18T01:23:59;13.07;;;5.73;;
62903;SDS011;49000;50.698;13.322;2022-12-18T01:26:25;13.27;;;6.17;;
62903;SDS011;49000;50.698;13.322;2022-12-18T01:28:53;17.63;;;7.00;;
62903;SDS011;49000;50.698;13.322;2022-12-18T01:31:21;15.23;;;6.13;;
62903;SDS011;49000;50.698;13.322;2022-12-18T01:33:50;12.87;;;5.63;;
62903;SDS011;49000;50.698;13.322;2022-12-18T01:36:17;11.70;;;5.43;;
62903;SDS011;49000;50.698;13.322;2022-12-18T01:38:47;12.20;;;6.10;;
62903;SDS011;49000;50.698;13.322;2022-12-18T01:41:17;13.70;;;5.33;;
62903;SDS011;49000;50.698;13.322;2022-12-18T01:43:52;15.83;;;6.30;;
62903;SDS011;49000;50.698;13.322;2022-12-18T01:46:22;12.93;;;5.33;;
62903;SDS011;49000;50.698;13.322;2022-12-18T01:48:52;12.50;;;6.10;;
62903;SDS011;49000;50.698;13.322;2022-12-18T01:51:21;15.47;;;5.80;;
62903;SDS011;49000;50.698;13.322;2022-12-18T01:53:47;11.93;;;5.90;;
62903;SDS011;49000;50.698;13.322;2022-12-18T01:56:14;14.00;;;5.60;;
62903;SDS011;49000;50.698;13.322;2022-12-18T01:58:46;12.77;;;5.70;;
62903;SDS011;49000;50.698;13.322;2022-12-18T02:01:21;13.30;;;6.43;;
62903;SDS011;49000;50.698;13.322;2022-12-18T02:03:48;16.60;;;6.17;;
62903;SDS011;49000;50.698;13.322;2022-12-18T02:06:28;13.77;;;6.07;;
62903;SDS011;49000;50.698;13.322;2022-12-18T02:09:02;13.93;;;5.63;;
62903;SDS011;49000;50.698;13.322;2022-12-18T02:11:41;13.87;;;5.27;;
62903;SDS011;49000;50.698;13.322;2022-12-18T02:23:08;11.43;;;4.87;;
62903;SDS011;49000;50.698;13.322;2022-12-18T02:28:11;11.27;;;4.53;;
62903;SDS011;49000;50.698;13.322;2022-12-18T02:30:39;9.37;;;4.07;;
62903;SDS011;49000;50.698;13.322;2022-12-18T02:33:07;10.60;;;4.43;;
62903;SDS011;49000;50.698;13.322;2022-12-18T02:35:36;7.53;;;3.40;;
62903;SDS011;49000;50.698;13.322;2022-12-18T02:38:03;10.67;;;4.17;;
62903;SDS011;49000;50.698;13.322;2022-12-18T02:40:29;12.37;;;3.77;;
62903;SDS011;49000;50.698;13.322;2022-12-18T02:43:01;10.87;;;3.80;;
62903;SDS011;49000;50.698;13.322;2022-12-18T02:45:46;7.70;;;3.47;;
62903;SDS011;49000;50.698;13.322;2022-12-18T02:48:23;6.67;;;3.60;;
62903;SDS011;49000;50.698;13.322;2022-12-18T02:51:09;7.87;;;3.63;;
62903;SDS011;49000;50.698;13.322;2022-12-18T02:53:43;8.40;;;3.37;;
62903;SDS011;49000;50.698;13.322;2022-12-18T02:56:18;9.47;;;3.17;;
62903;SDS011;49000;50.698;13.322;2022-12-18T03:01:38;8.43;;;3.30;;
62903;SDS011;49000;50.698;13.322;2022-12-18T03:04:16;7.47;;;3.57;;
62903;SDS011;49000;50.698;13.322;2022-12-18T03:06:59;6.47;;;2.97;;
62903;SDS011;49000;50.698;13.322;2022-12-18T03:09:33;5.17;;;2.90;;
62903;SDS011;49000;50.698;13.322;2022-12-18T03:12:04;8.00;;;3.00;;
62903;SDS011;49000;50.698;13.322;2022-12-18T03:14:50;6.07;;;2.97;;
62903;SDS011;49000;50.698;13.322;2022-12-18T03:17:22;4.33;;;2.43;;
62903;SDS011;49000;50.698;13.322;2022-12-18T03:19:51;6.20;;;2.97;;
62903;SDS011;49000;50.698;13.322;2022-12-18T03:22:19;5.37;;;2.70;;
62903;SDS011;49000;50.698;13.322;2022-12-18T03:24:46;7.80;;;2.83;;
62903;SDS011;49000;50.698;13.322;2022-12-18T03:27:13;6.23;;;2.87;;
62903;SDS011;49000;50.698;13.322;2022-12-18T03:29:44;6.50;;;2.67;;
62903;SDS011;49000;50.698;13.322;2022-12-18T03:32:21;3.80;;;2.43;;
62903;SDS011;49000;50.698;13.322;2022-12-18T03:34:52;4.67;;;2.07;;
62903;SDS011;49000;50.698;13.322;2022-12-18T03:37:20;7.57;;;2.77;;
62903;SDS011;49000;50.698;13.322;2022-12-18T03:39:45;8.37;;;2.60;;
62903;SDS011;49000;50.698;13.322;2022-12-18T03:42:15;4.53;;;2.50;;
62903;SDS011;49000;50.698;13.322;2022-12-18T03:44:53;5.07;;;2.43;;
62903;SDS011;49000;50.698;13.322;2022-12-18T03:50:22;7.17;;;2.80;;
62903;SDS011;49000;50.698;13.322;2022-12-18T03:52:53;9.30;;;3.40;;
62903;SDS011;49000;50.698;13.322;2022-12-18T03:55:27;7.27;;;3.43;;
62903;SDS011;49000;50.698;13.322;2022-12-18T03:57:57;8.77;;;3.23;;
62903;SDS011;49000;50.698;13.322;2022-12-18T04:00:24;9.33;;;3.60;;
62903;SDS011;49000;50.698;13.322;2022-12-18T04:02:53;6.77;;;3.33;;
62903;SDS011;49000;50.698;13.322;2022-12-18T04:05:21;10.77;;;4.07;;
62903;SDS011;49000;50.698;13.322;2022-12-18T04:07:49;11.03;;;4.60;;
62903;SDS011;49000;50.698;13.322;2022-12-18T04:10:16;7.27;;;3.63;;
62903;SDS011;49000;50.698;13.322;2022-12-18T04:12:42;12.17;;;3.87;;
62903;SDS011;49000;50.698;13.322;2022-12-18T04:15:08;8.93;;;4.40;;
62903;SDS011;49000;50.698;13.322;2022-12-18T04:17:35;10.93;;;4.30;;
62903;SDS011;49000;50.698;13.322;2022-12-18T04:20:01;8.17;;;3.77;;
62903;SDS011;49000;50.698;13.322;2022-12-18T04:22:27;7.57;;;3.77;;
62903;SDS011;49000;50.698;13.322;2022-12-18T04:24:53;7.33;;;3.73;;
62903;SDS011;49000;50.698;13.322;2022-12-18T04:27:18;11.83;;;4.40;;
62903;SDS011;49000;50.698;13.322;2022-12-18T04:29:44;10.73;;;3.67;;
62903;SDS011;49000;50.698;13.322;2022-12-18T04:32:09;10.23;;;4.37;;
62903;SDS011;49000;50.698;13.322;2022-12-18T04:34:35;9.17;;;4.83;;
62903;SDS011;49000;50.698;13.322;2022-12-18T04:37:01;10.60;;;4.33;;
62903;SDS011;49000;50.698;13.322;2022-12-18T04:39:26;10.73;;;4.53;;
62903;SDS011;49000;50.698;13.322;2022-12-18T04:41:52;8.10;;;4.10;;
62903;SDS011;49000;50.698;13.322;2022-12-18T04:44:17;11.70;;;4.47;;
62903;SDS011;49000;50.698;13.322;2022-12-18T04:46:43;11.47;;;4.33;;
62903;SDS011;49000;50.698;13.322;2022-12-18T04:49:08;10.73;;;4.87;;
62903;SDS011;49000;50.698;13.322;2022-12-18T04:51:35;12.37;;;4.67;;
62903;SDS011;49000;50.698;13.322;2022-12-18T04:54:01;14.07;;;5.43;;
62903;SDS011;49000;50.698;13.322;2022-12-18T04:56:27;11.53;;;4.40;;
62903;SDS011;49000;50.698;13.322;2022-12-18T04:58:53;11.23;;;4.47;;
62903;SDS011;49000;50.698;13.322;2022-12-18T05:01:18;10.40;;;3.93;;
62903;SDS011;49000;50.698;13.322;2022-12-18T05:03:44;10.03;;;3.97;;
62903;SDS011;49000;50.698;13.322;2022-12-18T05:06:10;12.23;;;5.20;;
62903;SDS011;49000;50.698;13.322;2022-12-18T05:08:35;16.40;;;5.27;;
62903;SDS011;49000;50.698;13.322;2022-12-18T05:11:04;12.70;;;4.93;;
62903;SDS011;49000;50.698;13.322;2022-12-18T05:13:32;10.13;;;5.50;;
62903;SDS011;49000;50.698;13.322;2022-12-18T05:15:58;11.30;;;4.90;;
62903;SDS011;49000;50.698;13.322;2022-12-18T05:18:24;16.27;;;5.17;;
62903;SDS011;49000;50.698;13.322;2022-12-18T05:20:50;10.33;;;4.80;;
62903;SDS011;49000;50.698;13.322;2022-12-18T05:23:18;11.17;;;5.10;;
62903;SDS011;49000;50.698;13.322;2022-12-18T05:25:51;17.17;;;4.97;;
62903;SDS011;49000;50.698;13.322;2022-12-18T05:28:27;13.30;;;4.87;;
62903;SDS011;49000;50.698;13.322;2022-12-18T05:30:55;12.37;;;5.23;;
62903;SDS011;49000;50.698;13.322;2022-12-18T05:33:23;11.70;;;5.03;;
62903;SDS011;49000;50.698;13.322;2022-12-18T05:35:53;13.70;;;5.40;;
62903;SDS011;49000;50.698;13.322;2022-12-18T05:38:20;13.37;;;5.80;;
62903;SDS011;49000;50.698;13.322;2022-12-18T05:40:47;16.17;;;5.90;;
62903;SDS011;49000;50.698;13.322;2022-12-18T05:43:13;13.63;;;5.80;;
62903;SDS011;49000;50.698;13.322;2022-12-18T05:45:39;13.63;;;5.43;;
62903;SDS011;49000;50.698;13.322;2022-12-18T05:48:06;11.77;;;5.57;;
62903;SDS011;49000;50.698;13.322;2022-12-18T05:50:35;13.33;;;5.60;;
62903;SDS011;49000;50.698;13.322;2022-12-18T05:53:05;13.53;;;6.23;;
62903;SDS011;49000;50.698;13.322;2022-12-18T05:55:34;16.30;;;6.97;;
62903;SDS011;49000;50.698;13.322;2022-12-18T05:58:01;12.20;;;5.30;;
62903;SDS011;49000;50.698;13.322;2022-12-18T06:00:27;16.97;;;6.50;;
62903;SDS011;49000;50.698;13.322;2022-12-18T06:02:53;16.37;;;6.77;;
62903;SDS011;49000;50.698;13.322;2022-12-18T06:05:19;11.23;;;5.03;;
62903;SDS011;49000;50.698;13.322;2022-12-18T06:07:44;11.47;;;5.50;;
62903;SDS011;49000;50.698;13.322;2022-12-18T06:10:10;17.23;;;5.83;;
62903;SDS011;49000;50.698;13.322;2022-12-18T06:12:36;15.47;;;6.27;;
62903;SDS011;49000;50.698;13.322;2022-12-18T06:15:02;15.40;;;6.33;;
62903;SDS011;49000;50.698;13.322;2022-12-18T06:17:28;15.20;;;6.60;;
62903;SDS011;49000;50.698;13.322;2022-12-18T06:19:55;12.57;;;5.60;;
62903;SDS011;49000;50.698;13.322;2022-12-18T06:22:20;15.10;;;5.80;;
62903;SDS011;49000;50.698;13.322;2022-12-18T06:24:46;14.93;;;5.97;;
62903;SDS011;49000;50.698;13.322;2022-12-18T06:27:11;11.60;;;5.23;;
62903;SDS011;49000;50.698;13.322;2022-12-18T06:29:37;14.10;;;4.90;;
62903;SDS011;49000;50.698;13.322;2022-12-18T06:32:02;11.83;;;4.67;;
62903;SDS011;49000;50.698;13.322;2022-12-18T06:34:31;15.37;;;5.57;;
62903;SDS011;49000;50.698;13.322;2022-12-18T06:36:58;13.43;;;5.27;;
62903;SDS011;49000;50.698;13.322;2022-12-18T06:39:24;15.33;;;5.07;;
62903;SDS011;49000;50.698;13.322;2022-12-18T06:41:49;14.33;;;5.77;;
62903;SDS011;49000;50.698;13.322;2022-12-18T06:44:15;13.20;;;4.73;;
62903;SDS011;49000;50.698;13.322;2022-12-18T06:46:41;13.43;;;5.70;;
62903;SDS011;49000;50.698;13.322;2022-12-18T06:49:06;19.73;;;6.20;;
62903;SDS011;49000;50.698;13.322;2022-12-18T06:51:34;12.13;;;4.43;;
62903;SDS011;49000;50.698;13.322;2022-12-18T06:53:59;10.20;;;4.30;;
62903;SDS011;49000;50.698;13.322;2022-12-18T06:56:25;17.17;;;5.27;;
62903;SDS011;49000;50.698;13.322;2022-12-18T06:58:50;12.23;;;4.93;;
62903;SDS011;49000;50.698;13.322;2022-12-18T07:01:16;11.67;;;4.97;;
62903;SDS011;49000;50.698;13.322;2022-12-18T07:03:42;12.90;;;5.07;;
62903;SDS011;49000;50.698;13.322;2022-12-18T07:06:14;11.43;;;4.90;;
62903;SDS011;49000;50.698;13.322;2022-12-18T07:08:41;12.40;;;4.43;;
62903;SDS011;49000;50.698;13.322;2022-12-18T07:11:06;8.37;;;4.37;;
62903;SDS011;49000;50.698;13.322;2022-12-18T07:13:32;10.20;;;4.27;;
62903;SDS011;49000;50.698;13.322;2022-12-18T07:16:04;11.53;;;4.60;;
62903;SDS011;49000;50.698;13.322;2022-12-18T07:18:31;11.23;;;4.73;;
62903;SDS011;49000;50.698;13.322;2022-12-18T07:20:57;7.47;;;4.07;;
62903;SDS011;49000;50.698;13.322;2022-12-18T07:23:22;10.40;;;4.17;;
62903;SDS011;49000;50.698;13.322;2022-12-18T07:25:48;13.50;;;5.37;;
62903;SDS011;49000;50.698;13.322;2022-12-18T07:28:13;8.60;;;4.20;;
62903;SDS011;49000;50.698;13.322;2022-12-18T07:30:39;14.47;;;4.20;;
62903;SDS011;49000;50.698;13.322;2022-12-18T07:33:05;9.13;;;4.10;;
62903;SDS011;49000;50.698;13.322;2022-12-18T07:35:32;12.50;;;4.57;;
62903;SDS011;49000;50.698;13.322;2022-12-18T07:37:58;9.77;;;4.27;;
62903;SDS011;49000;50.698;13.322;2022-12-18T07:40:23;11.23;;;4.47;;
62903;SDS011;49000;50.698;13.322;2022-12-18T07:42:49;11.57;;;4.43;;
62903;SDS011;49000;50.698;13.322;2022-12-18T07:45:14;12.60;;;4.73;;
62903;SDS011;49000;50.698;13.322;2022-12-18T07:47:40;12.67;;;4.93;;
62903;SDS011;49000;50.698;13.322;2022-12-18T07:50:06;13.33;;;5.30;;
62903;SDS011;49000;50.698;13.322;2022-12-18T07:52:32;12.27;;;5.13;;
62903;SDS011;49000;50.698;13.322;2022-12-18T07:54:57;12.67;;;4.57;;
62903;SDS011;49000;50.698;13.322;2022-12-18T07:57:23;15.00;;;5.73;;
62903;SDS011;49000;50.698;13.322;2022-12-18T07:59:48;15.27;;;5.10;;
62903;SDS011;49000;50.698;13.322;2022-12-18T08:02:14;11.90;;;4.47;;
62903;SDS011;49000;50.698;13.322;2022-12-18T08:04:39;12.77;;;5.20;;
62903;SDS011;49000;50.698;13.322;2022-12-18T08:07:05;10.63;;;5.00;;
62903;SDS011;49000;50.698;13.322;2022-12-18T08:09:30;10.40;;;4.37;;
62903;SDS011;49000;50.698;13.322;2022-12-18T08:11:56;13.67;;;4.63;;
62903;SDS011;49000;50.698;13.322;2022-12-18T08:14:21;10.30;;;5.00;;
62903;SDS011;49000;50.698;13.322;2022-12-18T08:16:47;15.17;;;5.90;;
62903;SDS011;49000;50.698;13.322;2022-12-18T08:19:13;9.87;;;4.40;;
62903;SDS011;49000;50.698;13.322;2022-12-18T08:21:41;10.07;;;4.07;;
62903;SDS011;49000;50.698;13.322;2022-12-18T08:24:08;9.17;;;4.67;;
62903;SDS011;49000;50.698;13.322;2022-12-18T08:26:34;7.40;;;4.10;;
62903;SDS011;49000;50.698;13.322;2022-12-18T08:28:59;9.03;;;4.40;;
62903;SDS011;49000;50.698;13.322;2022-12-18T08:31:26;8.97;;;3.97;;
62903;SDS011;49000;50.698;13.322;2022-12-18T08:33:52;8.90;;;3.80;;
62903;SDS011;49000;50.698;13.322;2022-12-18T08:36:21;9.67;;;4.10;;
62903;SDS011;49000;50.698;13.322;2022-12-18T08:38:48;8.30;;;4.27;;
62903;SDS011;49000;50.698;13.322;2022-12-18T08:41:14;10.57;;;4.73;;
62903;SDS011;49000;50.698;13.322;2022-12-18T08:43:41;13.63;;;4.67;;
62903;SDS011;49000;50.698;13.322;2022-12-18T08:46:26;9.07;;;4.17;;
62903;SDS011;49000;50.698;13.322;2022-12-18T08:48:52;9.20;;;4.30;;
62903;SDS011;49000;50.698;13.322;2022-12-18T08:51:20;13.60;;;4.67;;
62903;SDS011;49000;50.698;13.322;2022-12-18T08:53:46;8.30;;;4.30;;
62903;SDS011;49000;50.698;13.322;2022-12-18T08:56:12;7.47;;;3.80;;
62903;SDS011;49000;50.698;13.322;2022-12-18T08:58:39;12.37;;;4.47;;
62903;SDS011;49000;50.698;13.322;2022-12-18T09:01:06;8.63;;;3.80;;
62903;SDS011;49000;50.698;13.322;2022-12-18T09:03:34;8.17;;;4.20;;
62903;SDS011;49000;50.698;13.322;2022-12-18T09:06:00;8.80;;;3.57;;
62903;SDS011;49000;50.698;13.322;2022-12-18T09:08:26;9.67;;;4.47;;
62903;SDS011;49000;50.698;13.322;2022-12-18T09:10:52;10.10;;;4.37;;
62903;SDS011;49000;50.698;13.322;2022-12-18T09:13:18;9.07;;;3.77;;
62903;SDS011;49000;50.698;13.322;2022-12-18T09:15:44;11.80;;;3.70;;
62903;SDS011;49000;50.698;13.322;2022-12-18T09:18:16;8.40;;;4.17;;
62903;SDS011;49000;50.698;13.322;2022-12-18T09:20:42;11.10;;;4.77;;
62903;SDS011;49000;50.698;13.322;2022-12-18T09:23:08;10.77;;;4.37;;
62903;SDS011;49000;50.698;13.322;2022-12-18T09:25:34;9.90;;;4.37;;
62903;SDS011;49000;50.698;13.322;2022-12-18T09:28:11;12.43;;;5.07;;
62903;SDS011;49000;50.698;13.322;2022-12-18T09:30:42;11.37;;;5.23;;
62903;SDS011;49000;50.698;13.322;2022-12-18T09:33:12;11.07;;;4.37;;
62903;SDS011;49000;50.698;13.322;2022-12-18T09:35:39;12.47;;;4.73;;
62903;SDS011;49000;50.698;13.322;2022-12-18T09:38:06;13.40;;;5.20;;
62903;SDS011;49000;50.698;13.322;2022-12-18T09:40:40;9.27;;;4.90;;
62903;SDS011;49000;50.698;13.322;2022-12-18T09:43:19;15.97;;;5.63;;
62903;SDS011;49000;50.698;13.322;2022-12-18T09:45:59;12.27;;;5.20;;
62903;SDS011;49000;50.698;13.322;2022-12-18T09:48:29;12.90;;;4.50;;
62903;SDS011;49000;50.698;13.322;2022-12-18T09:51:07;12.90;;;5.10;;
62903;SDS011;49000;50.698;13.322;2022-12-18T09:53:40;13.67;;;5.83;;
62903;SDS011;49000;50.698;13.322;2022-12-18T09:56:11;12.00;;;5.50;;
62903;SDS011;49000;50.698;13.322;2022-12-18T09:58:46;9.37;;;4.30;;
62903;SDS011;49000;50.698;13.322;2022-12-18T10:01:14;10.67;;;4.97;;
62903;SDS011;49000;50.698;13.322;2022-12-18T10:03:44;12.03;;;5.67;;
62903;SDS011;49000;50.698;13.322;2022-12-18T10:06:13;14.63;;;6.13;;
62903;SDS011;49000;50.698;13.322;2022-12-18T10:11:43;10.70;;;5.43;;
62903;SDS011;49000;50.698;13.322;2022-12-18T10:17:22;12.30;;;5.53;;
62903;SDS011;49000;50.698;13.322;2022-12-18T10:19:53;15.87;;;5.50;;
62903;SDS011;49000;50.698;13.322;2022-12-18T10:22:43;11.23;;;6.10;;
62903;SDS011;49000;50.698;13.322;2022-12-18T10:25:38;12.40;;;5.33;;
62903;SDS011;49000;50.698;13.322;2022-12-18T10:28:14;11.97;;;4.97;;
62903;SDS011;49000;50.698;13.322;2022-12-18T10:30:42;10.60;;;5.40;;
62903;SDS011;49000;50.698;13.322;2022-12-18T10:33:16;13.50;;;5.50;;
62903;SDS011;49000;50.698;13.322;2022-12-18T10:35:43;9.70;;;4.90;;
62903;SDS011;49000;50.698;13.322;2022-12-18T10:43:19;10.10;;;4.90;;
62903;SDS011;49000;50.698;13.322;2022-12-18T10:46:02;11.17;;;5.03;;
62903;SDS011;49000;50.698;13.322;2022-12-18T10:48:34;10.57;;;5.00;;
62903;SDS011;49000;50.698;13.322;2022-12-18T10:51:03;11.07;;;5.37;;
62903;SDS011;49000;50.698;13.322;2022-12-18T10:53:30;14.07;;;5.10;;
62903;SDS011;49000;50.698;13.322;2022-12-18T10:55:58;11.47;;;5.13;;
62903;SDS011;49000;50.698;13.322;2022-12-18T10:58:27;11.47;;;5.43;;
62903;SDS011;49000;50.698;13.322;2022-12-18T11:01:07;12.67;;;4.97;;
62903;SDS011;49000;50.698;13.322;2022-12-18T11:03:58;11.07;;;5.03;;
62903;SDS011;49000;50.698;13.322;2022-12-18T11:06:25;10.83;;;5.03;;
62903;SDS011;49000;50.698;13.322;2022-12-18T11:09:01;11.37;;;5.30;;
62903;SDS011;49000;50.698;13.322;2022-12-18T11:11:28;8.23;;;4.27;;
62903;SDS011;49000;50.698;13.322;2022-12-18T11:16:28;12.30;;;4.83;;
62903;SDS011;49000;50.698;13.322;2022-12-18T11:19:09;15.80;;;5.27;;
62903;SDS011;49000;50.698;13.322;2022-12-18T11:21:41;13.70;;;5.00;;
62903;SDS011;49000;50.698;13.322;2022-12-18T11:24:13;9.67;;;4.80;;
62903;SDS011;49000;50.698;13.322;2022-12-18T11:27:00;12.13;;;5.23;;
62903;SDS011;49000;50.698;13.322;2022-12-18T11:29:30;11.50;;;4.90;;
62903;SDS011;49000;50.698;13.322;2022-12-18T11:32:12;12.33;;;5.03;;
62903;SDS011;49000;50.698;13.322;2022-12-18T11:34:59;10.07;;;4.33;;
62903;SDS011;49000;50.698;13.322;2022-12-18T11:37:36;11.33;;;5.03;;
62903;SDS011;49000;50.698;13.322;2022-12-18T11:40:07;10.03;;;4.00;;
62903;SDS011;49000;50.698;13.322;2022-12-18T11:42:50;9.63;;;4.40;;
62903;SDS011;49000;50.698;13.322;2022-12-18T11:45:29;10.17;;;4.50;;
62903;SDS011;49000;50.698;13.322;2022-12-18T11:48:09;9.90;;;4.90;;
62903;SDS011;49000;50.698;13.322;2022-12-18T11:53:11;9.80;;;4.57;;
62903;SDS011;49000;50.698;13.322;2022-12-18T11:55:47;9.83;;;4.70;;
62903;SDS011;49000;50.698;13.322;2022-12-18T11:58:40;12.50;;;5.07;;
62903;SDS011;49000;50.698;13.322;2022-12-18T12:20:39;12.87;;;5.90;;
62903;SDS011;49000;50.698;13.322;2022-12-18T12:23:35;12.30;;;5.63;;
62903;SDS011;49000;50.698;13.322;2022-12-18T12:26:12;11.97;;;5.03;;
62903;SDS011;49000;50.698;13.322;2022-12-18T12:31:58;12.43;;;5.33;;
62903;SDS011;49000;50.698;13.322;2022-12-18T12:34:34;14.30;;;6.00;;
62903;SDS011;49000;50.698;13.322;2022-12-18T12:39:51;12.10;;;5.80;;
62903;SDS011;49000;50.698;13.322;2022-12-18T12:42:23;10.00;;;5.03;;
62903;SDS011;49000;50.698;13.322;2022-12-18T12:48:16;10.97;;;5.37;;
62903;SDS011;49000;50.698;13.322;2022-12-18T12:50:45;15.77;;;6.50;;
62903;SDS011;49000;50.698;13.322;2022-12-18T12:53:21;13.17;;;6.03;;
62903;SDS011;49000;50.698;13.322;2022-12-18T12:55:54;14.37;;;6.07;;
62903;SDS011;49000;50.698;13.322;2022-12-18T12:58:29;12.80;;;5.87;;
62903;SDS011;49000;50.698;13.322;2022-12-18T13:01:28;13.83;;;5.77;;
62903;SDS011;49000;50.698;13.322;2022-12-18T13:04:22;11.13;;;5.40;;
62903;SDS011;49000;50.698;13.322;2022-12-18T13:07:06;12.47;;;6.23;;
62903;SDS011;49000;50.698;13.322;2022-12-18T13:18:22;12.00;;;5.57;;
62903;SDS011;49000;50.698;13.322;2022-12-18T13:20:51;13.20;;;6.60;;
62903;SDS011;49000;50.698;13.322;2022-12-18T13:23:34;13.07;;;5.77;;
62903;SDS011;49000;50.698;13.322;2022-12-18T13:31:01;15.07;;;6.33;;
62903;SDS011;49000;50.698;13.322;2022-12-18T13:38:37;15.30;;;6.33;;
62903;SDS011;49000;50.698;13.322;2022-12-18T13:43:42;13.47;;;6.67;;
62903;SDS011;49000;50.698;13.322;2022-12-18T13:52:00;14.60;;;5.77;;
62903;SDS011;49000;50.698;13.322;2022-12-18T13:54:36;12.63;;;5.70;;
62903;SDS011;49000;50.698;13.322;2022-12-18T13:57:05;13.03;;;5.93;;
62903;SDS011;49000;50.698;13.322;2022-12-18T13:59:49;16.63;;;6.50;;
62903;SDS011;49000;50.698;13.322;2022-12-18T14:02:16;11.17;;;5.43;;
62903;SDS011;49000;50.698;13.322;2022-12-18T14:04:45;14.10;;;6.07;;
62903;SDS011;49000;50.698;13.322;2022-12-18T14:07:16;14.47;;;5.37;;
62903;SDS011;49000;50.698;13.322;2022-12-18T14:09:57;13.80;;;5.57;;
62903;SDS011;49000;50.698;13.322;2022-12-18T14:12:25;15.67;;;6.27;;
62903;SDS011;49000;50.698;13.322;2022-12-18T14:15:32;17.23;;;6.63;;
62903;SDS011;49000;50.698;13.322;2022-12-18T14:20:28;16.90;;;6.43;;
62903;SDS011;49000;50.698;13.322;2022-12-18T14:22:56;16.53;;;6.30;;
62903;SDS011;49000;50.698;13.322;2022-12-18T14:25:23;16.40;;;6.50;;
62903;SDS011;49000;50.698;13.322;2022-12-18T14:27:51;16.30;;;7.50;;
62903;SDS011;49000;50.698;13.322;2022-12-18T14:33:04;16.00;;;7.43;;
62903;SDS011;49000;50.698;13.322;2022-12-18T14:35:34;16.77;;;6.47;;
62903;SDS011;49000;50.698;13.322;2022-12-18T14:41:10;16.30;;;6.90;;
62903;SDS011;49000;50.698;13.322;2022-12-18T14:43:39;18.93;;;6.93;;
62903;SDS011;49000;50.698;13.322;2022-12-18T14:46:25;17.17;;;6.87;;
62903;SDS011;49000;50.698;13.322;2022-12-18T14:48:53;17.90;;;7.43;;
62903;SDS011;49000;50.698;13.322;2022-12-18T14:51:23;18.83;;;7.77;;
62903;SDS011;49000;50.698;13.322;2022-12-18T14:53:57;15.63;;;6.93;;
62903;SDS011;49000;50.698;13.322;2022-12-18T14:56:31;15.90;;;6.87;;
62903;SDS011;49000;50.698;13.322;2022-12-18T14:59:00;19.27;;;7.03;;
62903;SDS011;49000;50.698;13.322;2022-12-18T15:01:27;17.33;;;6.60;;
62903;SDS011;49000;50.698;13.322;2022-12-18T15:03:55;20.00;;;8.13;;
62903;SDS011;49000;50.698;13.322;2022-12-18T15:06:27;19.83;;;8.00;;
62903;SDS011;49000;50.698;13.322;2022-12-18T15:09:02;14.93;;;6.53;;
62903;SDS011;49000;50.698;13.322;2022-12-18T15:11:48;16.90;;;7.13;;
62903;SDS011;49000;50.698;13.322;2022-12-18T15:16:53;20.57;;;7.50;;
62903;SDS011;49000;50.698;13.322;2022-12-18T15:19:20;18.67;;;7.57;;
62903;SDS011;49000;50.698;13.322;2022-12-18T15:21:47;17.83;;;7.53;;
62903;SDS011;49000;50.698;13.322;2022-12-18T15:24:16;19.40;;;7.53;;
62903;SDS011;49000;50.698;13.322;2022-12-18T15:26:45;19.47;;;7.63;;
62903;SDS011;49000;50.698;13.322;2022-12-18T15:29:20;18.30;;;7.43;;
62903;SDS011;49000;50.698;13.322;2022-12-18T15:34:44;19.00;;;7.60;;
62903;SDS011;49000;50.698;13.322;2022-12-18T15:37:09;17.97;;;7.30;;
62903;SDS011;49000;50.698;13.322;2022-12-18T15:39:35;17.50;;;7.30;;
62903;SDS011;49000;50.698;13.322;2022-12-18T15:42:01;18.80;;;7.80;;
62903;SDS011;49000;50.698;13.322;2022-12-18T15:44:45;23.37;;;9.03;;
62903;SDS011;49000;50.698;13.322;2022-12-18T15:47:11;19.77;;;7.03;;
62903;SDS011;49000;50.698;13.322;2022-12-18T15:49:37;20.97;;;8.10;;
62903;SDS011;49000;50.698;13.322;2022-12-18T15:52:03;19.30;;;7.90;;
62903;SDS011;49000;50.698;13.322;2022-12-18T15:54:29;19.50;;;8.00;;
62903;SDS011;49000;50.698;13.322;2022-12-18T15:57:13;19.60;;;7.87;;
62903;SDS011;49000;50.698;13.322;2022-12-18T15:59:47;16.17;;;7.10;;
62903;SDS011;49000;50.698;13.322;2022-12-18T16:02:14;21.60;;;7.77;;
62903;SDS011;49000;50.698;13.322;2022-12-18T16:04:42;19.57;;;7.27;;
62903;SDS011;49000;50.698;13.322;2022-12-18T16:07:08;18.63;;;7.10;;
62903;SDS011;49000;50.698;13.322;2022-12-18T16:09:34;17.83;;;7.17;;
62903;SDS011;49000;50.698;13.322;2022-12-18T16:12:00;23.23;;;8.47;;
62903;SDS011;49000;50.698;13.322;2022-12-18T16:14:27;20.50;;;7.27;;
62903;SDS011;49000;50.698;13.322;2022-12-18T16:16:55;19.60;;;8.03;;
62903;SDS011;49000;50.698;13.322;2022-12-18T16:19:24;21.97;;;8.60;;
62903;SDS011;49000;50.698;13.322;2022-12-18T16:21:51;21.43;;;7.77;;